sensor_id;sensor_type;location;lat;lon;timestamp;pressure;altitude;pressure_sealevel;temperature;humidity
59106;BME280;44891;50.204;8.132;2023-03-04T00:01:56;98950.94;;;-1.05;79.10
59106;BME280;44891;50.204;8.132;2023-03-04T00:05:58;98957.69;;;-0.87;78.93
59106;BME280;44891;50.204;8.132;2023-03-04T00:10:00;98954.16;;;-1.03;79.81
59106;BME280;44891;50.204;8.132;2023-03-04T00:14:03;98958.81;;;-0.89;78.70
59106;BME280;44891;50.204;8.132;2023-03-04T00:18:05;98956.53;;;-1.38;80.37
59106;BME280;44891;50.204;8.132;2023-03-04T00:22:07;98942.34;;;-1.24;80.04
59106;BME280;44891;50.204;8.132;2023-03-04T00:26:09;98949.19;;;-1.15;79.37
59106;BME280;44891;50.204;8.132;2023-03-04T00:30:15;98952.16;;;-1.10;78.60
59106;BME280;44891;50.204;8.132;2023-03-04T00:34:17;98945.06;;;-1.25;79.71
59106;BME280;44891;50.204;8.132;2023-03-04T00:38:19;98943.53;;;-1.18;78.55
59106;BME280;44891;50.204;8.132;2023-03-04T00:42:21;98946.69;;;-1.24;79.62
59106;BME280;44891;50.204;8.132;2023-03-04T00:46:24;98941.53;;;-1.24;80.48
59106;BME280;44891;50.204;8.132;2023-03-04T00:50:26;98946.56;;;-1.05;79.67
59106;BME280;44891;50.204;8.132;2023-03-04T00:54:28;98951.66;;;-1.41;81.31
59106;BME280;44891;50.204;8.132;2023-03-04T00:58:30;98946.53;;;-1.23;81.40
59106;BME280;44891;50.204;8.132;2023-03-04T01:02:33;98947.63;;;-0.98;80.77
59106;BME280;44891;50.204;8.132;2023-03-04T01:06:35;98942.59;;;-0.82;79.75
59106;BME280;44891;50.204;8.132;2023-03-04T01:10:37;98939.78;;;-0.88;80.41
59106;BME280;44891;50.204;8.132;2023-03-04T01:14:39;98935.72;;;-1.08;82.19
59106;BME280;44891;50.204;8.132;2023-03-04T01:18:42;98923.81;;;-1.10;82.84
59106;BME280;44891;50.204;8.132;2023-03-04T01:22:44;98918.66;;;-0.92;82.44
59106;BME280;44891;50.204;8.132;2023-03-04T01:26:46;98911.00;;;-1.01;82.24
59106;BME280;44891;50.204;8.132;2023-03-04T01:30:48;98914.06;;;-0.80;81.10
59106;BME280;44891;50.204;8.132;2023-03-04T01:34:52;98903.63;;;-0.78;81.59
59106;BME280;44891;50.204;8.132;2023-03-04T01:38:54;98900.63;;;-0.92;82.55
59106;BME280;44891;50.204;8.132;2023-03-04T01:42:57;98890.88;;;-0.80;82.63
59106;BME280;44891;50.204;8.132;2023-03-04T01:46:59;98879.94;;;-0.56;81.30
59106;BME280;44891;50.204;8.132;2023-03-04T01:51:02;98884.78;;;-0.53;81.08
59106;BME280;44891;50.204;8.132;2023-03-04T01:55:05;98881.06;;;-0.76;83.28
59106;BME280;44891;50.204;8.132;2023-03-04T01:59:08;98877.69;;;-0.59;82.64
59106;BME280;44891;50.204;8.132;2023-03-04T02:03:12;98875.22;;;-0.61;83.67
59106;BME280;44891;50.204;8.132;2023-03-04T02:07:16;98861.53;;;-0.35;83.52
59106;BME280;44891;50.204;8.132;2023-03-04T02:11:18;98858.06;;;-0.26;85.17
59106;BME280;44891;50.204;8.132;2023-03-04T02:15:20;98860.31;;;-0.23;85.49
59106;BME280;44891;50.204;8.132;2023-03-04T02:19:26;98856.06;;;-0.06;86.16
59106;BME280;44891;50.204;8.132;2023-03-04T02:23:34;98845.38;;;-0.11;85.83
59106;BME280;44891;50.204;8.132;2023-03-04T02:27:39;98849.13;;;-0.06;84.73
59106;BME280;44891;50.204;8.132;2023-03-04T02:31:42;98840.66;;;-0.16;85.29
59106;BME280;44891;50.204;8.132;2023-03-04T02:35:46;98841.19;;;-0.12;84.93
59106;BME280;44891;50.204;8.132;2023-03-04T02:39:48;98843.19;;;0.02;85.05
59106;BME280;44891;50.204;8.132;2023-03-04T02:43:52;98841.16;;;0.30;84.12
59106;BME280;44891;50.204;8.132;2023-03-04T02:47:55;98838.19;;;0.09;84.63
59106;BME280;44891;50.204;8.132;2023-03-04T02:52:00;98837.94;;;0.20;85.84
59106;BME280;44891;50.204;8.132;2023-03-04T02:56:03;98834.06;;;0.32;86.27
59106;BME280;44891;50.204;8.132;2023-03-04T03:00:11;98835.03;;;0.31;84.53
59106;BME280;44891;50.204;8.132;2023-03-04T03:04:16;98838.88;;;0.19;85.41
59106;BME280;44891;50.204;8.132;2023-03-04T03:08:19;98832.44;;;0.31;86.39
59106;BME280;44891;50.204;8.132;2023-03-04T03:12:21;98829.28;;;0.53;87.85
59106;BME280;44891;50.204;8.132;2023-03-04T03:16:24;98831.69;;;0.47;85.15
59106;BME280;44891;50.204;8.132;2023-03-04T03:20:26;98833.31;;;0.40;85.06
59106;BME280;44891;50.204;8.132;2023-03-04T03:24:28;98831.81;;;0.29;86.34
59106;BME280;44891;50.204;8.132;2023-03-04T03:28:30;98829.13;;;0.47;86.18
59106;BME280;44891;50.204;8.132;2023-03-04T03:32:35;98822.13;;;0.39;86.51
59106;BME280;44891;50.204;8.132;2023-03-04T03:36:37;98817.47;;;0.43;86.95
59106;BME280;44891;50.204;8.132;2023-03-04T03:40:39;98819.25;;;0.50;88.24
59106;BME280;44891;50.204;8.132;2023-03-04T03:44:41;98812.19;;;0.69;87.96
59106;BME280;44891;50.204;8.132;2023-03-04T03:48:44;98820.91;;;0.68;87.67
59106;BME280;44891;50.204;8.132;2023-03-04T03:52:46;98811.06;;;0.79;87.24
59106;BME280;44891;50.204;8.132;2023-03-04T03:56:48;98810.91;;;0.81;87.37
59106;BME280;44891;50.204;8.132;2023-03-04T04:00:50;98811.38;;;0.85;87.50
59106;BME280;44891;50.204;8.132;2023-03-04T04:04:53;98806.38;;;0.83;87.52
59106;BME280;44891;50.204;8.132;2023-03-04T04:08:55;98809.94;;;0.82;88.33
59106;BME280;44891;50.204;8.132;2023-03-04T04:12:57;98806.53;;;0.90;88.08
59106;BME280;44891;50.204;8.132;2023-03-04T04:16:59;98800.88;;;1.11;87.14
59106;BME280;44891;50.204;8.132;2023-03-04T04:21:02;98809.94;;;1.15;86.82
59106;BME280;44891;50.204;8.132;2023-03-04T04:25:05;98807.34;;;1.15;86.71
59106;BME280;44891;50.204;8.132;2023-03-04T04:29:08;98811.38;;;1.09;87.28
59106;BME280;44891;50.204;8.132;2023-03-04T04:33:10;98810.41;;;1.02;87.36
59106;BME280;44891;50.204;8.132;2023-03-04T04:37:14;98806.03;;;1.11;87.52
59106;BME280;44891;50.204;8.132;2023-03-04T04:41:17;98805.25;;;1.10;87.85
59106;BME280;44891;50.204;8.132;2023-03-04T04:45:20;98802.16;;;1.23;87.04
59106;BME280;44891;50.204;8.132;2023-03-04T04:49:22;98801.19;;;1.24;87.10
59106;BME280;44891;50.204;8.132;2023-03-04T04:53:25;98800.19;;;1.41;86.15
59106;BME280;44891;50.204;8.132;2023-03-04T04:57:27;98797.75;;;1.31;86.63
59106;BME280;44891;50.204;8.132;2023-03-04T05:01:29;98786.28;;;1.34;86.29
59106;BME280;44891;50.204;8.132;2023-03-04T05:05:31;98788.53;;;1.45;86.03
59106;BME280;44891;50.204;8.132;2023-03-04T05:09:34;98801.47;;;1.45;86.09
59106;BME280;44891;50.204;8.132;2023-03-04T05:13:36;98800.34;;;1.48;85.58
59106;BME280;44891;50.204;8.132;2023-03-04T05:17:38;98806.63;;;1.53;85.49
59106;BME280;44891;50.204;8.132;2023-03-04T05:21:39;98789.63;;;1.67;84.55
59106;BME280;44891;50.204;8.132;2023-03-04T05:25:43;98797.22;;;1.60;84.79
59106;BME280;44891;50.204;8.132;2023-03-04T05:29:44;98793.69;;;1.53;85.28
59106;BME280;44891;50.204;8.132;2023-03-04T05:33:46;98791.72;;;1.63;84.73
59106;BME280;44891;50.204;8.132;2023-03-04T05:37:48;98800.81;;;1.59;84.92
59106;BME280;44891;50.204;8.132;2023-03-04T05:41:51;98794.81;;;1.59;85.14
59106;BME280;44891;50.204;8.132;2023-03-04T05:45:53;98802.28;;;1.54;85.35
59106;BME280;44891;50.204;8.132;2023-03-04T05:49:55;98791.25;;;1.60;84.97
59106;BME280;44891;50.204;8.132;2023-03-04T05:53:57;98795.94;;;1.56;85.21
59106;BME280;44891;50.204;8.132;2023-03-04T05:58:00;98786.34;;;1.73;84.63
59106;BME280;44891;50.204;8.132;2023-03-04T06:02:02;98793.91;;;1.83;83.64
59106;BME280;44891;50.204;8.132;2023-03-04T06:06:04;98806.19;;;1.89;83.41
59106;BME280;44891;50.204;8.132;2023-03-04T06:10:07;98804.31;;;1.75;84.15
59106;BME280;44891;50.204;8.132;2023-03-04T06:14:10;98812.22;;;1.81;84.08
59106;BME280;44891;50.204;8.132;2023-03-04T06:18:12;98819.94;;;1.89;83.84
59106;BME280;44891;50.204;8.132;2023-03-04T06:22:14;98819.63;;;1.84;83.70
59106;BME280;44891;50.204;8.132;2023-03-04T06:26:16;98816.91;;;1.86;83.64
59106;BME280;44891;50.204;8.132;2023-03-04T06:30:19;98818.84;;;1.84;84.01
59106;BME280;44891;50.204;8.132;2023-03-04T06:34:21;98823.88;;;1.85;83.42
59106;BME280;44891;50.204;8.132;2023-03-04T06:38:23;98830.78;;;1.93;83.62
59106;BME280;44891;50.204;8.132;2023-03-04T06:42:25;98828.25;;;1.85;83.78
59106;BME280;44891;50.204;8.132;2023-03-04T06:46:29;98834.50;;;1.99;83.15
59106;BME280;44891;50.204;8.132;2023-03-04T06:50:30;98843.94;;;1.83;83.62
59106;BME280;44891;50.204;8.132;2023-03-04T06:54:32;98843.22;;;1.98;83.12
59106;BME280;44891;50.204;8.132;2023-03-04T06:58:34;98842.72;;;2.02;82.95
59106;BME280;44891;50.204;8.132;2023-03-04T07:02:38;98845.31;;;2.02;82.87
59106;BME280;44891;50.204;8.132;2023-03-04T07:06:39;98846.94;;;2.11;82.35
59106;BME280;44891;50.204;8.132;2023-03-04T07:10:41;98852.38;;;2.16;82.10
59106;BME280;44891;50.204;8.132;2023-03-04T07:14:43;98861.16;;;2.15;82.60
59106;BME280;44891;50.204;8.132;2023-03-04T07:18:46;98860.34;;;2.15;82.38
59106;BME280;44891;50.204;8.132;2023-03-04T07:22:48;98864.38;;;2.17;82.21
59106;BME280;44891;50.204;8.132;2023-03-04T07:26:50;98863.56;;;2.25;82.03
59106;BME280;44891;50.204;8.132;2023-03-04T07:30:52;98860.28;;;2.31;80.92
59106;BME280;44891;50.204;8.132;2023-03-04T07:34:55;98865.03;;;2.20;82.16
59106;BME280;44891;50.204;8.132;2023-03-04T07:38:57;98869.84;;;2.23;82.15
59106;BME280;44891;50.204;8.132;2023-03-04T07:42:59;98871.78;;;2.29;81.89
59106;BME280;44891;50.204;8.132;2023-03-04T07:47:02;98868.38;;;2.28;82.50
59106;BME280;44891;50.204;8.132;2023-03-04T07:51:07;98876.13;;;2.36;82.18
59106;BME280;44891;50.204;8.132;2023-03-04T07:55:09;98873.66;;;2.43;81.65
59106;BME280;44891;50.204;8.132;2023-03-04T07:59:11;98870.75;;;2.46;81.32
59106;BME280;44891;50.204;8.132;2023-03-04T08:03:13;98875.13;;;2.45;81.73
59106;BME280;44891;50.204;8.132;2023-03-04T08:07:16;98872.16;;;2.49;81.40
59106;BME280;44891;50.204;8.132;2023-03-04T08:11:19;98880.31;;;2.45;81.59
59106;BME280;44891;50.204;8.132;2023-03-04T08:15:22;98876.41;;;2.41;81.41
59106;BME280;44891;50.204;8.132;2023-03-04T08:19:24;98876.22;;;2.51;81.36
59106;BME280;44891;50.204;8.132;2023-03-04T08:23:27;98881.69;;;2.56;81.35
59106;BME280;44891;50.204;8.132;2023-03-04T08:27:29;98882.13;;;2.68;80.55
59106;BME280;44891;50.204;8.132;2023-03-04T08:31:31;98887.13;;;2.69;80.21
59106;BME280;44891;50.204;8.132;2023-03-04T08:35:38;98891.06;;;2.65;80.78
59106;BME280;44891;50.204;8.132;2023-03-04T08:39:41;98893.09;;;2.78;80.20
59106;BME280;44891;50.204;8.132;2023-03-04T08:43:43;98894.22;;;2.76;80.34
59106;BME280;44891;50.204;8.132;2023-03-04T08:47:45;98895.22;;;2.75;80.50
59106;BME280;44891;50.204;8.132;2023-03-04T08:51:47;98886.56;;;2.82;80.28
59106;BME280;44891;50.204;8.132;2023-03-04T08:55:50;98895.69;;;2.78;80.39
59106;BME280;44891;50.204;8.132;2023-03-04T08:59:53;98893.03;;;2.86;79.59
59106;BME280;44891;50.204;8.132;2023-03-04T09:03:54;98893.78;;;2.95;79.55
59106;BME280;44891;50.204;8.132;2023-03-04T09:07:56;98891.50;;;3.00;79.54
59106;BME280;44891;50.204;8.132;2023-03-04T09:12:00;98887.78;;;2.94;79.34
59106;BME280;44891;50.204;8.132;2023-03-04T09:16:02;98888.16;;;2.91;79.95
59106;BME280;44891;50.204;8.132;2023-03-04T09:20:04;98886.19;;;2.93;79.52
59106;BME280;44891;50.204;8.132;2023-03-04T09:24:08;98885.06;;;2.88;79.39
59106;BME280;44891;50.204;8.132;2023-03-04T09:28:11;98892.47;;;2.99;79.69
59106;BME280;44891;50.204;8.132;2023-03-04T09:32:13;98893.09;;;3.01;79.13
59106;BME280;44891;50.204;8.132;2023-03-04T09:36:15;98887.84;;;3.09;78.60
59106;BME280;44891;50.204;8.132;2023-03-04T09:40:18;98884.91;;;3.12;78.18
59106;BME280;44891;50.204;8.132;2023-03-04T09:44:23;98889.31;;;3.12;78.42
59106;BME280;44891;50.204;8.132;2023-03-04T09:48:27;98889.84;;;3.22;77.88
59106;BME280;44891;50.204;8.132;2023-03-04T09:52:33;98892.56;;;3.28;77.49
59106;BME280;44891;50.204;8.132;2023-03-04T09:56:39;98894.13;;;3.38;77.14
59106;BME280;44891;50.204;8.132;2023-03-04T10:00:43;98894.06;;;3.23;77.76
59106;BME280;44891;50.204;8.132;2023-03-04T10:04:46;98887.44;;;3.20;78.58
59106;BME280;44891;50.204;8.132;2023-03-04T10:08:51;98888.72;;;3.24;78.08
59106;BME280;44891;50.204;8.132;2023-03-04T10:12:54;98886.44;;;3.44;77.32
59106;BME280;44891;50.204;8.132;2023-03-04T10:17:02;98875.59;;;3.41;77.61
59106;BME280;44891;50.204;8.132;2023-03-04T10:21:09;98880.16;;;3.39;77.60
59106;BME280;44891;50.204;8.132;2023-03-04T10:25:15;98876.00;;;3.30;77.92
59106;BME280;44891;50.204;8.132;2023-03-04T10:29:20;98875.16;;;3.37;77.63
59106;BME280;44891;50.204;8.132;2023-03-04T10:33:24;98869.88;;;3.45;77.45
59106;BME280;44891;50.204;8.132;2023-03-04T10:37:41;98873.31;;;3.61;76.50
59106;BME280;44891;50.204;8.132;2023-03-04T10:41:44;98873.41;;;3.67;76.02
59106;BME280;44891;50.204;8.132;2023-03-04T10:45:54;98873.59;;;3.66;75.89
59106;BME280;44891;50.204;8.132;2023-03-04T10:49:59;98876.00;;;3.67;76.20
59106;BME280;44891;50.204;8.132;2023-03-04T10:54:03;98875.91;;;3.75;75.60
59106;BME280;44891;50.204;8.132;2023-03-04T10:58:06;98873.97;;;3.77;75.21
59106;BME280;44891;50.204;8.132;2023-03-04T11:06:32;98859.09;;;3.71;75.35
59106;BME280;44891;50.204;8.132;2023-03-04T11:10:40;98860.94;;;3.63;76.17
59106;BME280;44891;50.204;8.132;2023-03-04T11:14:44;98857.19;;;3.65;75.87
59106;BME280;44891;50.204;8.132;2023-03-04T11:18:49;98850.75;;;3.61;76.74
59106;BME280;44891;50.204;8.132;2023-03-04T11:22:54;98847.19;;;3.77;75.88
59106;BME280;44891;50.204;8.132;2023-03-04T11:26:58;98852.63;;;3.82;75.82
59106;BME280;44891;50.204;8.132;2023-03-04T11:31:02;98853.78;;;3.94;75.27
59106;BME280;44891;50.204;8.132;2023-03-04T11:35:05;98851.28;;;4.01;73.98
59106;BME280;44891;50.204;8.132;2023-03-04T11:39:16;98845.91;;;4.02;74.58
59106;BME280;44891;50.204;8.132;2023-03-04T11:43:21;98843.31;;;4.17;74.02
59106;BME280;44891;50.204;8.132;2023-03-04T11:47:31;98832.19;;;4.23;73.30
59106;BME280;44891;50.204;8.132;2023-03-04T11:51:39;98833.22;;;4.29;73.18
59106;BME280;44891;50.204;8.132;2023-03-04T11:55:49;98832.44;;;4.28;72.63
59106;BME280;44891;50.204;8.132;2023-03-04T11:59:54;98833.72;;;4.18;73.33
59106;BME280;44891;50.204;8.132;2023-03-04T12:04:06;98823.47;;;4.31;73.08
59106;BME280;44891;50.204;8.132;2023-03-04T12:08:23;98803.38;;;4.61;72.18
59106;BME280;44891;50.204;8.132;2023-03-04T12:12:34;98798.81;;;4.84;70.83
59106;BME280;44891;50.204;8.132;2023-03-04T12:16:47;98796.47;;;4.89;70.57
59106;BME280;44891;50.204;8.132;2023-03-04T12:20:56;98788.97;;;5.08;69.52
59106;BME280;44891;50.204;8.132;2023-03-04T12:25:11;98793.56;;;5.06;69.86
59106;BME280;44891;50.204;8.132;2023-03-04T12:29:19;98786.97;;;5.03;69.50
59106;BME280;44891;50.204;8.132;2023-03-04T12:33:30;98781.69;;;4.97;70.17
59106;BME280;44891;50.204;8.132;2023-03-04T12:37:47;98782.88;;;4.94;69.61
59106;BME280;44891;50.204;8.132;2023-03-04T12:41:53;98770.91;;;5.00;70.19
59106;BME280;44891;50.204;8.132;2023-03-04T12:46:01;98770.75;;;5.08;69.92
59106;BME280;44891;50.204;8.132;2023-03-04T12:50:20;98771.25;;;5.18;69.03
59106;BME280;44891;50.204;8.132;2023-03-04T12:54:27;98765.13;;;5.04;70.66
59106;BME280;44891;50.204;8.132;2023-03-04T12:58:32;98762.34;;;5.06;70.49
59106;BME280;44891;50.204;8.132;2023-03-04T13:06:59;98754.16;;;5.09;70.49
59106;BME280;44891;50.204;8.132;2023-03-04T13:15:28;98739.59;;;5.21;71.02
59106;BME280;44891;50.204;8.132;2023-03-04T13:19:46;98736.59;;;5.17;70.36
59106;BME280;44891;50.204;8.132;2023-03-04T13:23:50;98738.59;;;5.15;70.88
59106;BME280;44891;50.204;8.132;2023-03-04T13:28:04;98686.47;;;4.81;71.38
59106;BME280;44891;50.204;8.132;2023-03-04T13:32:08;98729.34;;;5.13;71.16
59106;BME280;44891;50.204;8.132;2023-03-04T13:36:25;98722.06;;;5.02;72.20
59106;BME280;44891;50.204;8.132;2023-03-04T13:40:33;98724.38;;;5.18;71.64
59106;BME280;44891;50.204;8.132;2023-03-04T13:49:05;98718.41;;;5.24;71.95
59106;BME280;44891;50.204;8.132;2023-03-04T13:53:18;98720.34;;;5.43;71.84
59106;BME280;44891;50.204;8.132;2023-03-04T13:57:24;98719.13;;;5.46;72.20
59106;BME280;44891;50.204;8.132;2023-03-04T14:01:27;98707.53;;;5.49;71.71
59106;BME280;44891;50.204;8.132;2023-03-04T14:05:31;98715.28;;;5.35;72.38
59106;BME280;44891;50.204;8.132;2023-03-04T14:09:35;98709.38;;;5.20;73.07
59106;BME280;44891;50.204;8.132;2023-03-04T14:13:38;98707.56;;;5.21;73.34
59106;BME280;44891;50.204;8.132;2023-03-04T14:17:43;98710.97;;;5.21;73.52
59106;BME280;44891;50.204;8.132;2023-03-04T14:21:46;98706.72;;;5.13;74.31
59106;BME280;44891;50.204;8.132;2023-03-04T14:25:48;98700.72;;;5.13;74.01
59106;BME280;44891;50.204;8.132;2023-03-04T14:30:01;98701.66;;;5.05;74.67
59106;BME280;44891;50.204;8.132;2023-03-04T14:34:03;98698.06;;;5.06;74.92
59106;BME280;44891;50.204;8.132;2023-03-04T14:38:06;98689.03;;;5.02;75.23
59106;BME280;44891;50.204;8.132;2023-03-04T14:42:14;98684.19;;;4.99;75.33
59106;BME280;44891;50.204;8.132;2023-03-04T14:46:18;98670.00;;;5.02;75.77
59106;BME280;44891;50.204;8.132;2023-03-04T14:50:21;98661.03;;;5.04;75.77
59106;BME280;44891;50.204;8.132;2023-03-04T14:54:28;98674.28;;;5.09;75.51
59106;BME280;44891;50.204;8.132;2023-03-04T14:58:30;98665.88;;;5.14;75.33
59106;BME280;44891;50.204;8.132;2023-03-04T15:02:36;98662.13;;;5.23;74.99
59106;BME280;44891;50.204;8.132;2023-03-04T15:06:39;98650.31;;;5.27;75.10
59106;BME280;44891;50.204;8.132;2023-03-04T15:10:52;98651.47;;;5.18;75.92
59106;BME280;44891;50.204;8.132;2023-03-04T15:14:56;98648.47;;;5.21;75.29
59106;BME280;44891;50.204;8.132;2023-03-04T15:19:01;98652.69;;;5.15;75.74
59106;BME280;44891;50.204;8.132;2023-03-04T15:23:03;98655.25;;;5.09;76.21
59106;BME280;44891;50.204;8.132;2023-03-04T15:27:07;98651.22;;;5.06;76.63
59106;BME280;44891;50.204;8.132;2023-03-04T15:31:13;98650.84;;;5.09;76.69
59106;BME280;44891;50.204;8.132;2023-03-04T15:35:17;98650.22;;;5.07;76.55
59106;BME280;44891;50.204;8.132;2023-03-04T15:39:19;98639.47;;;5.17;76.50
59106;BME280;44891;50.204;8.132;2023-03-04T15:43:23;98648.09;;;5.24;76.29
59106;BME280;44891;50.204;8.132;2023-03-04T15:47:24;98636.47;;;5.20;76.93
59106;BME280;44891;50.204;8.132;2023-03-04T15:51:28;98639.50;;;5.24;76.93
59106;BME280;44891;50.204;8.132;2023-03-04T15:55:29;98643.06;;;5.16;77.71
59106;BME280;44891;50.204;8.132;2023-03-04T15:59:32;98642.00;;;5.04;78.49
59106;BME280;44891;50.204;8.132;2023-03-04T16:03:34;98605.44;;;4.84;78.27
59106;BME280;44891;50.204;8.132;2023-03-04T16:07:37;98644.94;;;4.94;79.50
59106;BME280;44891;50.204;8.132;2023-03-04T16:11:41;98632.19;;;5.06;78.89
59106;BME280;44891;50.204;8.132;2023-03-04T16:15:45;98644.19;;;5.07;78.60
59106;BME280;44891;50.204;8.132;2023-03-04T16:19:47;98636.81;;;5.10;78.78
59106;BME280;44891;50.204;8.132;2023-03-04T16:23:50;98642.28;;;5.15;78.32
59106;BME280;44891;50.204;8.132;2023-03-04T16:27:53;98639.19;;;5.05;78.85
59106;BME280;44891;50.204;8.132;2023-03-04T16:31:56;98638.22;;;5.13;78.65
59106;BME280;44891;50.204;8.132;2023-03-04T16:35:57;98637.22;;;5.14;78.81
59106;BME280;44891;50.204;8.132;2023-03-04T16:40:01;98640.63;;;5.14;78.85
59106;BME280;44891;50.204;8.132;2023-03-04T16:44:04;98635.44;;;5.14;79.05
59106;BME280;44891;50.204;8.132;2023-03-04T16:48:08;98627.78;;;5.06;79.65
59106;BME280;44891;50.204;8.132;2023-03-04T16:52:13;98637.63;;;5.11;80.16
59106;BME280;44891;50.204;8.132;2023-03-04T16:56:21;98630.41;;;5.13;80.08
59106;BME280;44891;50.204;8.132;2023-03-04T17:00:23;98637.41;;;5.06;80.90
59106;BME280;44891;50.204;8.132;2023-03-04T17:04:26;98634.41;;;5.09;80.98
59106;BME280;44891;50.204;8.132;2023-03-04T17:08:28;98624.69;;;4.89;81.96
59106;BME280;44891;50.204;8.132;2023-03-04T17:12:31;98632.72;;;4.95;81.70
59106;BME280;44891;50.204;8.132;2023-03-04T17:16:33;98647.13;;;4.90;82.11
59106;BME280;44891;50.204;8.132;2023-03-04T17:20:35;98641.88;;;4.84;82.73
59106;BME280;44891;50.204;8.132;2023-03-04T17:24:37;98639.22;;;4.77;83.58
59106;BME280;44891;50.204;8.132;2023-03-04T17:28:40;98638.78;;;4.74;84.05
59106;BME280;44891;50.204;8.132;2023-03-04T17:32:42;98641.34;;;4.67;84.44
59106;BME280;44891;50.204;8.132;2023-03-04T17:36:44;98645.94;;;4.65;85.02
59106;BME280;44891;50.204;8.132;2023-03-04T17:40:46;98643.94;;;4.67;84.92
59106;BME280;44891;50.204;8.132;2023-03-04T17:44:49;98642.34;;;4.66;84.96
59106;BME280;44891;50.204;8.132;2023-03-04T17:48:51;98635.38;;;4.73;85.02
59106;BME280;44891;50.204;8.132;2023-03-04T17:52:54;98638.13;;;4.65;85.95
59106;BME280;44891;50.204;8.132;2023-03-04T17:56:56;98646.91;;;4.57;86.46
59106;BME280;44891;50.204;8.132;2023-03-04T18:01:00;98638.44;;;4.55;86.98
59106;BME280;44891;50.204;8.132;2023-03-04T18:05:03;98638.50;;;4.62;86.66
59106;BME280;44891;50.204;8.132;2023-03-04T18:09:07;98635.78;;;4.70;86.53
59106;BME280;44891;50.204;8.132;2023-03-04T18:13:09;98634.94;;;4.63;87.41
59106;BME280;44891;50.204;8.132;2023-03-04T18:17:12;98635.91;;;4.62;88.09
59106;BME280;44891;50.204;8.132;2023-03-04T18:21:14;98638.69;;;4.60;88.05
59106;BME280;44891;50.204;8.132;2023-03-04T18:25:16;98644.47;;;4.56;88.56
59106;BME280;44891;50.204;8.132;2023-03-04T18:29:18;98638.28;;;4.57;88.85
59106;BME280;44891;50.204;8.132;2023-03-04T18:33:21;98632.69;;;4.60;89.13
59106;BME280;44891;50.204;8.132;2023-03-04T18:37:23;98638.28;;;4.57;90.11
59106;BME280;44891;50.204;8.132;2023-03-04T18:41:25;98640.09;;;4.56;91.29
59106;BME280;44891;50.204;8.132;2023-03-04T18:45:26;98628.50;;;4.59;91.65
59106;BME280;44891;50.204;8.132;2023-03-04T18:49:30;98640.19;;;4.48;93.55
59106;BME280;44891;50.204;8.132;2023-03-04T18:53:31;98633.84;;;4.51;94.40
59106;BME280;44891;50.204;8.132;2023-03-04T18:57:33;98639.25;;;4.49;95.33
59106;BME280;44891;50.204;8.132;2023-03-04T19:01:35;98631.78;;;4.46;96.37
59106;BME280;44891;50.204;8.132;2023-03-04T19:05:39;98638.28;;;4.57;96.68
59106;BME280;44891;50.204;8.132;2023-03-04T19:09:41;98626.22;;;4.49;97.41
59106;BME280;44891;50.204;8.132;2023-03-04T19:13:43;98635.25;;;4.53;97.42
59106;BME280;44891;50.204;8.132;2023-03-04T19:17:47;98630.38;;;4.44;98.50
59106;BME280;44891;50.204;8.132;2023-03-04T19:21:50;98639.41;;;4.48;98.87
59106;BME280;44891;50.204;8.132;2023-03-04T19:25:52;98635.69;;;4.35;99.40
59106;BME280;44891;50.204;8.132;2023-03-04T19:29:53;98637.75;;;4.40;100.00
59106;BME280;44891;50.204;8.132;2023-03-04T19:33:55;98629.94;;;4.40;100.00
59106;BME280;44891;50.204;8.132;2023-03-04T19:37:59;98634.09;;;4.34;100.00
59106;BME280;44891;50.204;8.132;2023-03-04T19:42:01;98629.75;;;4.42;100.00
59106;BME280;44891;50.204;8.132;2023-03-04T19:46:03;98626.69;;;4.31;100.00
59106;BME280;44891;50.204;8.132;2023-03-04T19:50:06;98630.34;;;4.37;100.00
59106;BME280;44891;50.204;8.132;2023-03-04T19:54:10;98633.72;;;4.38;100.00
59106;BME280;44891;50.204;8.132;2023-03-04T19:58:12;98621.16;;;4.41;100.00
59106;BME280;44891;50.204;8.132;2023-03-04T20:02:14;98626.53;;;4.40;100.00
59106;BME280;44891;50.204;8.132;2023-03-04T20:06:16;98623.34;;;4.38;100.00
59106;BME280;44891;50.204;8.132;2023-03-04T20:10:19;98622.69;;;4.35;100.00
59106;BME280;44891;50.204;8.132;2023-03-04T20:14:21;98629.63;;;4.28;100.00
59106;BME280;44891;50.204;8.132;2023-03-04T20:18:23;98620.97;;;4.21;100.00
59106;BME280;44891;50.204;8.132;2023-03-04T20:22:25;98619.63;;;4.25;100.00
59106;BME280;44891;50.204;8.132;2023-03-04T20:26:29;98627.72;;;4.16;100.00
59106;BME280;44891;50.204;8.132;2023-03-04T20:30:31;98590.81;;;3.99;100.00
59106;BME280;44891;50.204;8.132;2023-03-04T20:34:33;98618.31;;;4.15;100.00
59106;BME280;44891;50.204;8.132;2023-03-04T20:38:36;98618.16;;;4.16;100.00
59106;BME280;44891;50.204;8.132;2023-03-04T20:42:40;98617.53;;;4.14;100.00
59106;BME280;44891;50.204;8.132;2023-03-04T20:46:42;98627.31;;;4.12;100.00
59106;BME280;44891;50.204;8.132;2023-03-04T20:50:44;98633.13;;;4.14;100.00
59106;BME280;44891;50.204;8.132;2023-03-04T20:54:46;98626.13;;;4.15;100.00
59106;BME280;44891;50.204;8.132;2023-03-04T20:58:49;98623.34;;;4.16;100.00
59106;BME280;44891;50.204;8.132;2023-03-04T21:02:51;98627.66;;;4.09;100.00
59106;BME280;44891;50.204;8.132;2023-03-04T21:06:54;98630.66;;;4.06;100.00
59106;BME280;44891;50.204;8.132;2023-03-04T21:10:56;98618.78;;;4.18;100.00
59106;BME280;44891;50.204;8.132;2023-03-04T21:14:59;98620.38;;;4.19;100.00
59106;BME280;44891;50.204;8.132;2023-03-04T21:19:01;98624.22;;;4.23;100.00
59106;BME280;44891;50.204;8.132;2023-03-04T21:23:03;98619.81;;;4.24;100.00
59106;BME280;44891;50.204;8.132;2023-03-04T21:27:05;98622.22;;;4.25;100.00
59106;BME280;44891;50.204;8.132;2023-03-04T21:31:10;98614.63;;;4.24;100.00
59106;BME280;44891;50.204;8.132;2023-03-04T21:35:14;98616.41;;;4.23;100.00
59106;BME280;44891;50.204;8.132;2023-03-04T21:39:19;98608.78;;;4.22;100.00
59106;BME280;44891;50.204;8.132;2023-03-04T21:43:21;98607.94;;;4.15;100.00
59106;BME280;44891;50.204;8.132;2023-03-04T21:47:24;98607.72;;;4.09;100.00
59106;BME280;44891;50.204;8.132;2023-03-04T21:51:28;98605.53;;;4.13;100.00
59106;BME280;44891;50.204;8.132;2023-03-04T21:55:30;98607.75;;;4.16;100.00
59106;BME280;44891;50.204;8.132;2023-03-04T21:59:32;98597.97;;;4.18;99.95